Time;durP1;ratioP1;P1;durP2;ratioP2;P2;SDS_P1;SDS_P2;PMS_P1;PMS_P2;Temp;Humidity;BMP_temperature;BMP_pressure;BME280_temperature;BME280_humidity;BME280_pressure;Samples;Min_cycle;Max_cycle;Signal;HPM_P1;HPM_P2
2021/12/01 00:00:06;;;;;;;5.75;2.85;;;3.60;1.00;;;;;;5129789;28;20224;-86
2021/12/01 00:02:35;;;;;;;5.85;2.80;;;3.60;1.00;;;;;;5129299;27;20231;-86
2021/12/01 00:05:03;;;;;;;6.25;2.70;;;3.60;1.00;;;;;;5126166;27;20276;-85
2021/12/01 00:07:31;;;;;;;9.52;3.53;;;3.60;1.00;;;;;;5131096;28;20222;-86
2021/12/01 00:09:59;;;;;;;6.93;3.55;;;3.60;1.00;;;;;;5110664;27;20219;-84
2021/12/01 00:12:27;;;;;;;6.53;3.25;;;3.70;1.00;;;;;;5127995;27;20203;-84
2021/12/01 00:14:54;;;;;;;6.53;3.60;;;3.60;1.00;;;;;;5116416;27;20242;-86
2021/12/01 00:17:23;;;;;;;6.05;3.42;;;3.70;1.00;;;;;;5127762;27;20252;-84
2021/12/01 00:19:50;;;;;;;7.78;4.45;;;3.70;1.00;;;;;;5125413;27;20278;-85
2021/12/01 00:22:17;;;;;;;4.95;3.10;;;3.80;1.00;;;;;;5124001;27;20254;-85
2021/12/01 00:24:44;;;;;;;8.10;3.10;;;3.80;1.00;;;;;;5128301;28;20308;-86
2021/12/01 00:27:15;;;;;;;7.57;3.08;;;3.80;1.00;;;;;;5106653;27;20227;-84
2021/12/01 00:29:42;;;;;;;5.28;3.00;;;3.80;1.00;;;;;;5122626;27;20219;-84
2021/12/01 00:32:10;;;;;;;7.72;3.30;;;3.80;1.00;;;;;;5121468;28;21069;-84
2021/12/01 00:34:37;;;;;;;5.18;2.70;;;3.90;1.00;;;;;;5120503;28;20223;-82
2021/12/01 00:37:05;;;;;;;5.53;2.63;;;3.90;1.00;;;;;;5111496;28;20231;-85
2021/12/01 00:39:32;;;;;;;7.70;3.05;;;3.90;1.00;;;;;;5102044;28;20235;-83
2021/12/01 00:42:00;;;;;;;7.80;2.80;;;3.90;1.00;;;;;;5097461;28;20233;-83
2021/12/01 00:44:30;;;;;;;6.22;2.25;;;3.90;1.00;;;;;;5091497;28;20305;-84
2021/12/01 00:47:05;;;;;;;5.55;2.20;;;3.80;1.00;;;;;;5100788;28;20213;-84
2021/12/01 00:49:33;;;;;;;4.57;2.13;;;3.80;1.00;;;;;;5113683;27;20236;-83
2021/12/01 01:10:45;;;;;;;8.20;2.50;;;3.80;1.00;;;;;;5100449;27;20289;-85
2021/12/01 01:16:23;;;;;;;3.85;2.05;;;3.90;1.00;;;;;;5112284;28;20227;-84
2021/12/01 01:18:57;;;;;;;4.80;2.50;;;3.90;1.00;;;;;;5109180;28;20227;-83
2021/12/01 01:21:28;;;;;;;9.63;3.10;;;4.00;1.00;;;;;;5091372;28;20224;-83
2021/12/01 01:23:57;;;;;;;5.40;2.60;;;3.90;1.00;;;;;;5116330;28;20216;-83
2021/12/01 01:26:28;;;;;;;4.50;2.10;;;4.00;1.00;;;;;;5106391;22;20245;-83
2021/12/01 01:28:55;;;;;;;6.85;2.92;;;4.00;1.00;;;;;;5095015;28;20238;-84
2021/12/01 01:31:23;;;;;;;9.80;2.85;;;4.10;1.00;;;;;;5114547;28;20290;-84
2021/12/01 01:33:52;;;;;;;6.35;2.60;;;4.10;1.00;;;;;;5085544;28;20225;-83
2021/12/01 01:36:20;;;;;;;6.50;3.58;;;4.10;1.00;;;;;;5061868;28;20282;-85
2021/12/01 01:38:47;;;;;;;7.03;3.50;;;4.10;1.00;;;;;;5060649;28;20225;-82
2021/12/01 01:41:15;;;;;;;7.90;3.53;;;4.10;1.00;;;;;;5073947;28;20989;-84
2021/12/01 01:43:47;;;;;;;9.63;3.25;;;4.00;1.00;;;;;;5048509;28;20233;-84
2021/12/01 01:46:16;;;;;;;9.77;3.35;;;4.00;1.00;;;;;;5073688;28;20252;-83
2021/12/01 01:48:49;;;;;;;7.10;2.65;;;4.00;1.00;;;;;;5071985;28;20228;-84
2021/12/01 01:51:20;;;;;;;7.55;4.25;;;4.00;1.00;;;;;;5087780;27;20205;-83
2021/12/01 01:53:53;;;;;;;8.48;2.90;;;4.00;1.00;;;;;;5069672;28;20229;-83
2021/12/01 01:56:21;;;;;;;7.60;3.13;;;3.90;1.00;;;;;;5055863;28;21023;-83
2021/12/01 01:58:50;;;;;;;6.47;2.72;;;3.90;1.00;;;;;;5068665;28;20916;-84
2021/12/01 02:01:32;;;;;;;7.03;2.88;;;3.90;1.00;;;;;;5069302;28;20225;-84
2021/12/01 02:04:00;;;;;;;5.47;2.78;;;3.90;1.00;;;;;;5048536;28;20252;-84
2021/12/01 02:06:28;;;;;;;7.07;3.20;;;3.90;1.00;;;;;;5067956;28;20221;-84
2021/12/01 02:08:57;;;;;;;6.47;2.75;;;3.90;1.00;;;;;;5072955;28;20452;-85
2021/12/01 02:11:26;;;;;;;9.02;2.78;;;3.90;1.00;;;;;;5067104;28;20225;-85
2021/12/01 02:13:55;;;;;;;7.75;3.10;;;3.90;1.00;;;;;;5050243;28;20259;-84
2021/12/01 02:16:23;;;;;;;9.10;3.42;;;3.90;1.00;;;;;;5048687;28;20874;-83
2021/12/01 02:18:51;;;;;;;10.43;3.28;;;3.90;1.00;;;;;;5047767;28;20292;-83
2021/12/01 02:21:27;;;;;;;18.98;3.83;;;4.00;1.00;;;;;;5066884;28;20236;-85
2021/12/01 02:23:55;;;;;;;7.97;3.00;;;3.90;1.00;;;;;;5066770;28;20221;-85
2021/12/01 02:26:24;;;;;;;9.80;3.70;;;3.90;1.00;;;;;;5058295;28;20229;-84
2021/12/01 02:28:55;;;;;;;11.23;3.95;;;3.90;1.00;;;;;;5058803;28;20225;-84
2021/12/01 02:31:25;;;;;;;4.90;2.90;;;3.80;1.00;;;;;;5076598;28;20326;-84
2021/12/01 02:33:53;;;;;;;11.10;3.55;;;3.80;1.00;;;;;;5077227;28;20229;-85
2021/12/01 02:36:23;;;;;;;11.63;4.80;;;3.80;1.00;;;;;;5075832;28;20225;-83
2021/12/01 02:38:51;;;;;;;7.30;3.65;;;3.70;1.00;;;;;;5078074;28;20263;-85
2021/12/01 02:41:27;;;;;;;10.68;3.08;;;3.70;1.00;;;;;;5072117;28;20300;-84
2021/12/01 02:43:54;;;;;;;8.20;3.78;;;3.70;1.00;;;;;;5076543;28;20224;-85
2021/12/01 02:46:22;;;;;;;7.93;3.13;;;3.70;1.00;;;;;;5056239;28;20228;-83
2021/12/01 02:48:50;;;;;;;7.80;2.80;;;3.70;1.00;;;;;;5065022;28;20233;-85
2021/12/01 02:51:19;;;;;;;7.82;3.53;;;3.80;1.00;;;;;;5073583;28;20247;-84
2021/12/01 02:53:48;;;;;;;8.25;2.83;;;3.80;1.00;;;;;;5065443;28;20271;-84
2021/12/01 02:56:18;;;;;;;7.43;3.35;;;3.90;1.00;;;;;;5073631;28;20240;-84
2021/12/01 02:58:46;;;;;;;8.95;3.40;;;3.90;1.00;;;;;;5060508;28;20221;-85
2021/12/01 03:01:16;;;;;;;12.40;3.88;;;4.00;1.00;;;;;;5054175;28;20225;-86
2021/12/01 03:03:44;;;;;;;9.57;3.22;;;4.00;1.00;;;;;;5063647;28;20229;-85
2021/12/01 03:06:12;;;;;;;11.30;3.47;;;3.90;1.00;;;;;;5060915;28;20225;-84
2021/12/01 03:08:42;;;;;;;9.65;3.83;;;3.90;1.00;;;;;;5043018;28;20228;-84
2021/12/01 03:11:13;;;;;;;7.03;2.72;;;3.90;1.00;;;;;;5052470;28;20281;-84
2021/12/01 03:13:40;;;;;;;11.23;3.55;;;3.90;1.00;;;;;;5062056;28;20252;-84
2021/12/01 03:16:11;;;;;;;9.80;3.30;;;3.90;1.00;;;;;;5052954;28;20332;-83
2021/12/01 03:18:38;;;;;;;8.32;3.00;;;3.90;1.00;;;;;;5073348;28;20296;-85
2021/12/01 03:21:07;;;;;;;10.77;4.15;;;3.90;1.00;;;;;;5072375;28;20233;-85
2021/12/01 03:23:35;;;;;;;11.00;3.25;;;4.00;1.00;;;;;;5067345;28;20217;-84
2021/12/01 03:26:04;;;;;;;11.90;3.72;;;4.00;1.00;;;;;;5040098;28;20778;-84
2021/12/01 03:28:36;;;;;;;13.23;2.70;;;4.00;1.00;;;;;;5058473;28;20225;-85
2021/12/01 03:31:04;;;;;;;8.45;3.67;;;4.00;1.00;;;;;;5063508;28;20230;-83
2021/12/01 03:33:34;;;;;;;9.45;3.55;;;4.00;1.00;;;;;;5056294;28;20300;-85
2021/12/01 03:36:02;;;;;;;8.70;3.17;;;3.90;1.00;;;;;;5044803;28;20229;-85
2021/12/01 03:38:32;;;;;;;8.40;3.50;;;4.00;1.00;;;;;;5060525;28;20228;-84
2021/12/01 03:40:59;;;;;;;6.35;2.90;;;4.00;1.00;;;;;;5042636;28;20264;-84
2021/12/01 03:43:28;;;;;;;9.00;3.05;;;4.00;1.00;;;;;;5043137;28;20228;-85
2021/12/01 03:45:59;;;;;;;7.07;3.22;;;3.90;1.00;;;;;;5047176;28;20228;-84
2021/12/01 03:48:27;;;;;;;8.18;4.43;;;3.90;1.00;;;;;;5065417;28;20226;-85
2021/12/01 03:50:54;;;;;;;6.10;2.50;;;4.00;1.00;;;;;;5045541;28;20225;-85
2021/12/01 03:53:24;;;;;;;9.60;4.47;;;3.90;1.00;;;;;;5046218;28;20225;-84
2021/12/01 03:55:53;;;;;;;8.80;2.90;;;3.90;1.00;;;;;;5071639;27;20228;-84
2021/12/01 03:58:22;;;;;;;10.52;3.85;;;4.00;1.00;;;;;;5074543;28;20432;-85
2021/12/01 04:00:50;;;;;;;8.88;3.45;;;4.00;1.00;;;;;;5066635;28;20237;-86
2021/12/01 04:03:18;;;;;;;11.48;4.68;;;4.00;1.00;;;;;;5066257;28;20217;-85
2021/12/01 04:05:45;;;;;;;8.50;3.58;;;4.00;1.00;;;;;;5043576;28;20221;-85
2021/12/01 04:08:15;;;;;;;10.48;3.28;;;4.00;1.00;;;;;;5064781;28;21112;-85
2021/12/01 04:10:42;;;;;;;11.30;3.28;;;4.00;1.00;;;;;;5050079;28;20225;-84
2021/12/01 04:13:10;;;;;;;9.23;3.10;;;4.00;1.00;;;;;;5067255;28;20231;-83
2021/12/01 04:15:37;;;;;;;11.20;2.97;;;4.00;1.00;;;;;;5063653;28;20267;-84
2021/12/01 04:18:04;;;;;;;7.15;3.78;;;4.10;1.00;;;;;;5067214;28;20254;-85
2021/12/01 04:20:33;;;;;;;12.73;3.15;;;4.10;1.00;;;;;;5047233;28;20225;-85
2021/12/01 04:23:01;;;;;;;10.93;3.05;;;4.00;1.00;;;;;;5065972;28;21460;-85
2021/12/01 04:25:28;;;;;;;9.18;3.10;;;4.00;1.00;;;;;;5046171;28;20237;-85
2021/12/01 04:27:58;;;;;;;7.15;2.75;;;4.00;1.00;;;;;;5067209;28;20237;-84
2021/12/01 04:30:27;;;;;;;9.25;2.95;;;4.00;1.00;;;;;;5068802;28;20319;-84
2021/12/01 04:32:57;;;;;;;11.85;4.05;;;4.00;1.00;;;;;;5049904;28;20305;-86
2021/12/01 04:35:28;;;;;;;9.13;2.88;;;4.00;1.00;;;;;;5068418;28;20220;-85
2021/12/01 04:37:57;;;;;;;11.38;3.67;;;4.00;1.00;;;;;;5057081;28;20217;-86
2021/12/01 04:40:26;;;;;;;8.75;3.42;;;4.00;1.00;;;;;;5072357;28;20386;-86
2021/12/01 04:42:54;;;;;;;7.57;3.28;;;3.90;1.00;;;;;;5075458;28;20231;-84
2021/12/01 04:45:22;;;;;;;9.30;3.92;;;3.90;1.00;;;;;;5074487;28;20222;-85
2021/12/01 04:47:52;;;;;;;13.77;4.55;;;3.90;1.00;;;;;;5093302;27;20237;-86
2021/12/01 04:50:21;;;;;;;11.55;3.10;;;3.90;1.00;;;;;;5096106;27;20225;-87
2021/12/01 04:52:51;;;;;;;10.63;3.75;;;3.90;1.00;;;;;;5090064;27;20232;-85
2021/12/01 04:55:23;;;;;;;9.13;4.55;;;3.80;1.00;;;;;;5074721;28;20761;-84
2021/12/01 04:57:53;;;;;;;12.13;3.88;;;3.80;1.00;;;;;;5093572;27;20248;-86
2021/12/01 05:00:22;;;;;;;9.27;3.55;;;3.80;1.00;;;;;;5076516;28;20324;-86
2021/12/01 05:02:50;;;;;;;13.88;4.22;;;3.80;1.00;;;;;;5062389;28;20237;-83
2021/12/01 05:05:17;;;;;;;11.60;3.70;;;3.80;1.00;;;;;;5062587;28;20239;-84
2021/12/01 05:07:44;;;;;;;9.30;4.45;;;3.80;1.00;;;;;;5049518;28;20237;-85
2021/12/01 05:10:12;;;;;;;12.65;4.53;;;3.80;1.00;;;;;;5052811;28;20209;-84
2021/12/01 05:12:41;;;;;;;14.60;4.50;;;3.70;1.00;;;;;;5045009;28;20229;-85
2021/12/01 05:15:09;;;;;;;12.95;4.13;;;3.80;1.00;;;;;;5057952;28;20237;-84
2021/12/01 05:17:36;;;;;;;14.80;4.35;;;3.80;1.00;;;;;;5071629;28;20226;-85
2021/12/01 05:20:06;;;;;;;14.55;4.35;;;3.80;1.00;;;;;;5069098;28;20222;-86
2021/12/01 05:22:34;;;;;;;9.80;4.05;;;3.80;1.00;;;;;;5048077;28;20247;-86
2021/12/01 05:25:05;;;;;;;8.23;3.53;;;3.80;1.00;;;;;;5055442;28;20232;-86
2021/12/01 05:27:33;;;;;;;8.75;3.90;;;3.80;1.00;;;;;;5068619;28;20311;-86
2021/12/01 05:30:02;;;;;;;11.80;4.10;;;3.80;1.00;;;;;;5056269;28;20228;-85
2021/12/01 05:32:33;;;;;;;13.63;3.65;;;3.90;1.00;;;;;;5077524;28;20235;-87
2021/12/01 05:35:00;;;;;;;11.45;3.95;;;3.90;1.00;;;;;;5056620;28;20248;-88
2021/12/01 05:37:28;;;;;;;13.30;3.60;;;4.00;1.00;;;;;;5067444;28;20238;-86
2021/12/01 05:39:55;;;;;;;11.13;3.92;;;4.00;1.00;;;;;;5062147;28;20539;-85
2021/12/01 05:42:23;;;;;;;11.45;3.70;;;4.00;1.00;;;;;;5065231;28;20229;-84
2021/12/01 05:44:51;;;;;;;9.10;3.00;;;4.00;1.00;;;;;;5049429;28;20343;-84
2021/12/01 05:47:25;;;;;;;8.50;3.60;;;4.10;1.00;;;;;;5051377;28;22030;-85
2021/12/01 05:49:52;;;;;;;8.88;3.63;;;4.00;1.00;;;;;;5069522;28;20221;-82
2021/12/01 05:52:19;;;;;;;7.25;3.25;;;4.00;1.00;;;;;;5065604;28;20229;-83
2021/12/01 05:54:51;;;;;;;11.13;3.65;;;4.10;1.00;;;;;;5068293;28;20225;-83
2021/12/01 05:57:18;;;;;;;10.15;3.80;;;4.10;1.00;;;;;;5071499;28;20227;-85
2021/12/01 05:59:47;;;;;;;15.82;3.95;;;4.00;1.00;;;;;;5051233;28;20315;-84
2021/12/01 06:02:15;;;;;;;9.27;4.50;;;4.00;1.00;;;;;;5085329;27;20243;-85
2021/12/01 06:04:44;;;;;;;9.63;3.80;;;4.00;1.00;;;;;;5087717;27;21050;-85
2021/12/01 06:07:12;;;;;;;9.48;4.35;;;4.00;1.00;;;;;;5066042;28;20241;-85
2021/12/01 06:09:39;;;;;;;9.55;4.07;;;4.00;1.00;;;;;;5069190;28;20219;-85
2021/12/01 06:12:11;;;;;;;10.40;3.83;;;4.00;1.00;;;;;;5069487;28;20236;-85
2021/12/01 06:14:40;;;;;;;10.32;4.50;;;4.00;1.00;;;;;;5070483;28;20229;-82
2021/12/01 06:17:08;;;;;;;11.25;4.00;;;4.00;1.00;;;;;;5072602;28;20272;-84
2021/12/01 06:19:38;;;;;;;8.18;4.47;;;3.90;1.00;;;;;;5056599;28;20283;-83
2021/12/01 06:22:07;;;;;;;11.32;4.80;;;4.00;1.00;;;;;;5074026;28;20543;-84
2021/12/01 06:24:37;;;;;;;12.07;4.90;;;4.00;1.00;;;;;;5072262;28;20308;-84
2021/12/01 06:27:05;;;;;;;9.60;4.43;;;4.00;1.00;;;;;;5063921;28;20229;-82
2021/12/01 06:29:36;;;;;;;12.10;5.50;;;4.00;1.00;;;;;;5074428;28;22159;-86
2021/12/01 06:32:04;;;;;;;14.82;5.10;;;4.00;1.00;;;;;;5064501;28;21146;-84
2021/12/01 06:34:31;;;;;;;11.02;5.53;;;4.00;1.00;;;;;;5045487;28;20221;-82
2021/12/01 06:36:58;;;;;;;9.75;5.00;;;4.00;1.00;;;;;;5044861;28;20225;-84
2021/12/01 06:39:27;;;;;;;19.92;6.05;;;4.00;1.00;;;;;;5043941;28;20287;-82
2021/12/01 06:41:54;;;;;;;14.05;5.20;;;4.00;1.00;;;;;;5063684;28;20752;-83
2021/12/01 06:44:23;;;;;;;12.65;5.75;;;4.10;1.00;;;;;;5045098;28;20302;-82
2021/12/01 06:46:50;;;;;;;10.70;5.95;;;4.10;1.00;;;;;;5046721;28;20235;-82
2021/12/01 06:49:18;;;;;;;11.95;6.35;;;4.10;1.00;;;;;;5049476;28;20242;-81
2021/12/01 06:51:45;;;;;;;10.38;7.15;;;4.20;1.00;;;;;;5051471;28;21683;-84
2021/12/01 06:54:12;;;;;;;11.00;6.15;;;4.20;1.00;;;;;;5061171;28;21566;-79
2021/12/01 06:59:42;;;;;;;9.10;6.90;;;4.20;1.00;;;;;;5034828;28;20260;-79
2021/12/01 07:02:17;;;;;;;10.18;6.32;;;4.20;1.00;;;;;;5065424;28;20224;-86
2021/12/01 07:04:49;;;;;;;476.13;297.05;;;4.30;1.00;;;;;;5069949;28;20217;-78
2021/12/01 07:07:39;;;;;;;8.20;5.97;;;4.30;1.00;;;;;;5080654;28;21037;-77
2021/12/01 07:14:37;;;;;;;9.68;6.68;;;4.40;1.00;;;;;;5004674;28;20233;-78
2021/12/01 07:20:22;;;;;;;7.65;6.43;;;4.40;1.00;;;;;;5019476;28;20222;-80
2021/12/01 07:22:51;;;;;;;8.13;5.80;;;4.50;1.00;;;;;;5025743;28;20241;-79
2021/12/01 07:25:24;;;;;;;7.90;5.80;;;4.50;1.00;;;;;;5041453;28;20228;-79
2021/12/01 07:27:52;;;;;;;6.30;5.45;;;4.50;1.00;;;;;;5065988;28;20213;-80
2021/12/01 07:30:26;;;;;;;9.15;5.78;;;4.50;1.00;;;;;;5059625;28;20217;-80
2021/12/01 07:33:13;;;;;;;8.25;5.88;;;4.50;1.00;;;;;;5066912;28;20714;-80
2021/12/01 07:35:46;;;;;;;10.55;5.25;;;4.60;1.00;;;;;;5061915;28;20299;-81
2021/12/01 07:38:20;;;;;;;6.97;5.50;;;4.60;1.00;;;;;;5066361;28;20223;-79
2021/12/01 07:40:47;;;;;;;8.85;5.35;;;4.70;1.00;;;;;;5061204;28;20325;-80
2021/12/01 07:43:15;;;;;;;8.07;6.30;;;4.70;1.00;;;;;;5063035;28;20233;-81
2021/12/01 07:45:44;;;;;;;7.53;5.82;;;4.70;1.00;;;;;;5054318;28;20224;-80
2021/12/01 07:48:17;;;;;;;7.05;6.32;;;4.80;1.00;;;;;;5061339;28;20229;-78
2021/12/01 07:50:55;;;;;;;8.98;6.15;;;4.90;1.00;;;;;;5070230;28;20334;-79
2021/12/01 07:53:30;;;;;;;8.05;5.95;;;5.00;1.00;;;;;;5044971;28;20212;-80
2021/12/01 07:56:02;;;;;;;7.47;6.75;;;5.00;1.00;;;;;;5071647;28;20221;-79
2021/12/01 07:58:31;;;;;;;6.30;5.70;;;5.10;1.00;;;;;;5047290;28;20276;-81
2021/12/01 08:01:33;;;;;;;7.10;6.40;;;5.10;1.00;;;;;;5062840;28;20236;-79
2021/12/01 08:08:30;;;;;;;;;;;;;;;;;;;;;
2021/12/01 08:11:08;;;;;;;8.15;6.70;;;5.30;1.00;;;;;;5024374;28;20306;-80
2021/12/01 08:14:17;;;;;;;6.85;6.25;;;5.40;1.00;;;;;;5044055;28;20224;-81
2021/12/01 08:17:17;;;;;;;8.02;6.80;;;5.60;1.00;;;;;;4940426;28;20423;-81
2021/12/01 08:19:57;;;;;;;9.30;7.47;;;5.70;1.00;;;;;;5015259;28;20228;-81
2021/12/01 08:22:26;;;;;;;7.90;7.05;;;5.80;1.00;;;;;;5050601;28;20290;-79
2021/12/01 08:28:22;;;;;;;7.70;6.90;;;5.90;1.00;;;;;;4988282;28;20294;-81
2021/12/01 08:31:23;;;;;;;7.60;6.80;;;5.90;1.00;;;;;;4972717;28;20343;-81
2021/12/01 08:34:17;;;;;;;;;;;;;;;;;;;;;
2021/12/01 08:37:17;;;;;;;7.95;6.50;;;6.00;1.00;;;;;;5046585;28;20241;-81
2021/12/01 08:40:09;;;;;;;7.20;6.50;;;6.10;1.00;;;;;;5047272;28;20222;-78
2021/12/01 08:42:43;;;;;;;7.43;6.60;;;6.10;1.00;;;;;;5048265;28;20269;-79
2021/12/01 08:45:41;;;;;;;8.80;6.50;;;6.20;1.00;;;;;;5052903;28;20218;-79
2021/12/01 08:48:11;;;;;;;9.13;7.30;;;6.20;1.00;;;;;;5049957;28;20292;-83
2021/12/01 08:50:43;;;;;;;7.45;6.30;;;6.20;1.00;;;;;;5033974;28;20710;-84
2021/12/01 08:53:21;;;;;;;7.75;6.95;;;6.20;1.00;;;;;;5032077;28;20234;-83
2021/12/01 08:59:39;;;;;;;7.05;6.35;;;6.30;1.00;;;;;;4965189;28;20224;-80
2021/12/01 09:11:12;;;;;;;6.22;5.63;;;6.40;1.00;;;;;;4985899;28;20221;-79
2021/12/01 09:13:50;;;;;;;6.85;6.25;;;6.30;1.00;;;;;;5020413;28;20230;-80
2021/12/01 09:16:19;;;;;;;6.28;5.65;;;6.30;1.00;;;;;;5026189;28;20328;-86
2021/12/01 09:18:50;;;;;;;8.02;5.40;;;6.40;1.00;;;;;;5054399;28;20980;-87
2021/12/01 09:21:21;;;;;;;7.45;5.00;;;6.40;1.00;;;;;;5052079;28;20230;-85
2021/12/01 09:23:48;;;;;;;5.70;5.13;;;6.40;1.00;;;;;;5053396;28;20297;-84
2021/12/01 09:26:16;;;;;;;5.70;5.20;;;6.40;1.00;;;;;;5065571;28;20221;-85
2021/12/01 09:29:06;;;;;;;8.80;5.60;;;6.40;1.00;;;;;;5058493;28;20294;-85
2021/12/01 09:31:41;;;;;;;7.28;5.25;;;6.40;1.00;;;;;;5073618;28;20217;-86
2021/12/01 09:34:26;;;;;;;;;;;;;;;;;;;;;
2021/12/01 09:36:56;;;;;;;5.03;4.40;;;6.50;1.00;;;;;;5072177;27;20214;-87
2021/12/01 09:39:35;;;;;;;4.93;4.40;;;6.50;1.00;;;;;;5093545;27;20209;-86
2021/12/01 09:42:06;;;;;;;4.88;4.38;;;6.50;1.00;;;;;;5076881;27;20235;-85
2021/12/01 09:44:38;;;;;;;4.60;4.20;;;6.50;1.00;;;;;;5089271;27;20232;-88
2021/12/01 09:47:08;;;;;;;5.05;4.07;;;6.50;1.00;;;;;;5095827;27;20197;-85
2021/12/01 09:49:36;;;;;;;5.15;4.40;;;6.60;1.00;;;;;;5090778;27;20213;-87
2021/12/01 09:52:08;;;;;;;6.03;4.15;;;6.60;1.00;;;;;;5094308;27;20272;-86
2021/12/01 09:54:39;;;;;;;4.95;4.20;;;6.60;1.00;;;;;;5070531;28;20220;-85
2021/12/01 09:57:07;;;;;;;7.00;4.20;;;6.60;1.00;;;;;;5075082;27;20316;-85
2021/12/01 09:59:39;;;;;;;3.85;3.15;;;6.60;1.00;;;;;;5080721;27;20220;-87
2021/12/01 10:02:18;;;;;;;4.78;3.95;;;6.60;1.00;;;;;;5071586;27;20225;-78
2021/12/01 10:09:48;;;;;;;6.32;3.97;;;6.60;1.00;;;;;;5005337;28;20254;-79
2021/12/01 10:13:02;;;;;;;3.63;2.95;;;6.60;1.00;;;;;;5006387;28;20288;-78
2021/12/01 10:15:35;;;;;;;4.05;3.40;;;6.60;1.00;;;;;;5006877;28;20239;-78
2021/12/01 10:18:39;;;;;;;5.28;4.10;;;6.60;1.00;;;;;;5021530;28;20243;-78
2021/12/01 10:21:45;;;;;;;6.13;3.80;;;6.70;1.00;;;;;;5061231;28;20223;-80
2021/12/01 10:25:12;;;;;;;4.97;3.80;;;6.70;1.00;;;;;;5010879;28;20242;-80
2021/12/01 10:28:13;;;;;;;6.60;5.00;;;6.70;1.00;;;;;;4916562;28;20277;-80
2021/12/01 10:35:14;;;;;;;5.07;4.68;;;6.70;1.00;;;;;;4943036;28;20342;-79
2021/12/01 10:46:28;;;;;;;;;;;;;;;;;;;;;
2021/12/01 10:49:18;;;;;;;5.85;5.35;;;6.60;1.00;;;;;;5048091;28;20232;-81
2021/12/01 10:51:53;;;;;;;4.00;3.60;;;6.70;1.00;;;;;;5059056;28;20206;-79
2021/12/01 10:55:16;;;;;;;4.57;4.18;;;6.70;1.00;;;;;;5060169;28;20295;-79
2021/12/01 10:58:32;;;;;;;;;;;;;;;;;;;;;
2021/12/01 11:16:38;;;;;;;4.38;3.53;;;6.60;1.00;;;;;;4814987;29;20267;-78
2021/12/01 11:19:09;;;;;;;4.18;3.60;;;6.60;1.00;;;;;;4864393;29;20253;-82
2021/12/01 11:21:38;;;;;;;6.70;5.28;;;6.60;1.00;;;;;;4912198;28;20234;-82
2021/12/01 11:24:08;;;;;;;4.50;4.07;;;6.60;1.00;;;;;;5033815;28;20465;-81
2021/12/01 11:26:37;;;;;;;4.50;4.10;;;6.60;1.00;;;;;;5056012;28;20633;-81
2021/12/01 11:29:08;;;;;;;4.50;4.10;;;6.60;1.00;;;;;;5034195;28;20240;-80
2021/12/01 11:31:40;;;;;;;4.75;4.25;;;6.60;1.00;;;;;;5060553;27;20205;-83
2021/12/01 11:34:14;;;;;;;5.32;4.07;;;6.60;1.00;;;;;;5060813;28;20226;-84
2021/12/01 11:36:44;;;;;;;4.35;3.75;;;6.60;1.00;;;;;;5057229;28;20470;-83
2021/12/01 11:39:18;;;;;;;5.53;3.22;;;6.60;1.00;;;;;;5060943;27;20249;-83
2021/12/01 11:41:59;;;;;;;4.10;3.42;;;6.60;1.00;;;;;;5042802;27;20210;-83
2021/12/01 11:51:11;;;;;;;5.38;3.58;;;6.60;1.00;;;;;;5020270;28;20228;-82
2021/12/01 11:54:22;;;;;;;;;;;;;;;;;;;;;
2021/12/01 11:57:14;;;;;;;5.10;3.80;;;6.60;1.00;;;;;;5042701;28;20236;-83
2021/12/01 12:00:06;;;;;;;5.07;4.03;;;6.60;1.00;;;;;;5029667;28;20253;-81
2021/12/01 12:02:56;;;;;;;4.47;3.92;;;6.60;1.00;;;;;;5037016;28;20694;-79
2021/12/01 12:09:09;;;;;;;4.18;3.78;;;6.60;1.00;;;;;;5050688;28;20225;-80
2021/12/01 12:11:39;;;;;;;6.47;4.32;;;6.60;1.00;;;;;;5046105;28;20217;-80
2021/12/01 12:14:09;;;;;;;3.30;2.95;;;6.60;1.00;;;;;;5054341;28;20221;-79
2021/12/01 12:16:37;;;;;;;3.90;3.55;;;6.60;1.00;;;;;;5055941;28;20209;-79
2021/12/01 12:19:07;;;;;;;3.55;3.25;;;6.70;1.00;;;;;;5029634;28;20295;-78
2021/12/01 12:21:40;;;;;;;3.95;3.10;;;6.70;1.00;;;;;;5047957;28;20218;-81
2021/12/01 12:24:12;;;;;;;3.92;3.00;;;6.60;1.00;;;;;;5024287;28;20292;-78
2021/12/01 12:26:43;;;;;;;3.35;2.80;;;6.70;1.00;;;;;;5019284;28;20222;-80
2021/12/01 12:30:07;;;;;;;3.45;3.00;;;6.70;1.00;;;;;;5050616;28;20324;-78
2021/12/01 12:37:14;;;;;;;3.22;2.50;;;6.80;1.00;;;;;;4944856;28;21083;-78
2021/12/01 12:40:02;;;;;;;3.55;2.50;;;6.80;1.00;;;;;;5045056;28;20240;-77
2021/12/01 12:43:32;;;;;;;2.72;2.20;;;6.80;1.00;;;;;;5055223;28;20279;-80
2021/12/01 12:46:40;;;;;;;3.05;2.47;;;6.80;1.00;;;;;;5038645;28;21471;-82
2021/12/01 13:03:46;;;;;;;3.90;2.60;;;7.00;1.00;;;;;;5030480;28;20236;-83
2021/12/01 13:06:45;;;;;;;2.63;2.10;;;7.00;1.00;;;;;;5039420;28;20224;-84
2021/12/01 13:13:39;;;;;;;2.10;1.60;;;7.10;1.00;;;;;;5073586;27;20217;-82
2021/12/01 13:20:23;;;;;;;3.05;2.20;;;7.10;1.00;;;;;;5060235;28;20226;-81
2021/12/01 13:31:11;;;;;;;2.90;1.58;;;7.20;1.00;;;;;;5020992;28;20218;-83
2021/12/01 13:34:20;;;;;;;2.35;1.50;;;7.20;1.00;;;;;;4946152;28;20260;-82
2021/12/01 13:36:54;;;;;;;3.75;2.00;;;7.20;1.00;;;;;;4986199;28;20229;-80
2021/12/01 13:40:20;;;;;;;5.68;2.08;;;7.20;1.00;;;;;;5050418;28;20809;-83
2021/12/01 13:43:02;;;;;;;1.60;1.02;;;7.20;1.00;;;;;;5061596;28;20893;-84
2021/12/01 13:49:56;;;;;;;4.50;2.10;;;7.30;1.00;;;;;;4949274;28;20346;-83
2021/12/01 13:53:02;;;;;;;3.38;1.77;;;7.30;1.00;;;;;;4968672;28;20319;-81
2021/12/01 13:59:21;;;;;;;2.67;1.70;;;7.40;1.00;;;;;;4923788;28;20409;-80
2021/12/01 14:01:51;;;;;;;4.85;2.80;;;7.40;1.00;;;;;;5036056;28;20310;-80
2021/12/01 14:04:23;;;;;;;2.20;1.90;;;7.40;1.00;;;;;;5062338;28;20291;-80
2021/12/01 14:06:54;;;;;;;3.75;1.60;;;7.50;1.00;;;;;;5062596;28;20221;-79
2021/12/01 14:09:42;;;;;;;2.83;1.30;;;7.50;1.00;;;;;;5062819;28;20253;-79
2021/12/01 14:12:19;;;;;;;2.08;1.67;;;7.50;1.00;;;;;;5042338;28;20297;-83
2021/12/01 14:14:50;;;;;;;2.50;1.35;;;7.50;1.00;;;;;;5048559;28;20219;-81
2021/12/01 14:17:18;;;;;;;2.55;1.20;;;7.60;1.00;;;;;;5060373;28;20716;-80
2021/12/01 14:19:45;;;;;;;2.97;1.30;;;7.60;1.00;;;;;;5079985;28;20290;-78
2021/12/01 14:22:13;;;;;;;2.05;1.30;;;7.60;1.00;;;;;;5067264;27;20438;-78
2021/12/01 14:24:51;;;;;;;2.28;1.63;;;7.70;1.00;;;;;;5060949;28;20246;-78
2021/12/01 14:27:25;;;;;;;2.15;1.75;;;7.60;1.00;;;;;;5036714;28;20735;-81
2021/12/01 14:29:57;;;;;;;2.33;1.67;;;7.70;1.00;;;;;;5056393;28;20256;-83
2021/12/01 14:32:29;;;;;;;2.05;1.30;;;7.70;1.00;;;;;;5058617;28;20262;-81
2021/12/01 14:35:02;;;;;;;2.15;1.25;;;7.70;1.00;;;;;;5041399;28;20685;-80
2021/12/01 14:37:30;;;;;;;2.70;1.38;;;7.70;1.00;;;;;;5033014;28;20218;-79
2021/12/01 14:40:06;;;;;;;1.80;1.10;;;7.80;1.00;;;;;;5067573;28;20327;-81
2021/12/01 14:42:33;;;;;;;2.38;1.30;;;7.80;1.00;;;;;;5050249;28;20221;-80
2021/12/01 14:45:07;;;;;;;1.92;1.40;;;7.80;1.00;;;;;;5063624;28;20272;-79
2021/12/01 14:47:35;;;;;;;1.90;1.27;;;7.80;1.00;;;;;;5060545;28;20219;-78
2021/12/01 14:50:04;;;;;;;3.15;1.55;;;7.80;1.00;;;;;;5056887;28;20220;-79
2021/12/01 14:52:34;;;;;;;1.92;1.10;;;7.90;1.00;;;;;;5055307;28;20220;-80
2021/12/01 14:55:04;;;;;;;2.33;1.30;;;7.80;1.00;;;;;;5042519;28;20234;-79
2021/12/01 14:57:35;;;;;;;2.05;1.20;;;7.80;1.00;;;;;;5054742;28;20299;-79
2021/12/01 15:00:10;;;;;;;2.90;1.60;;;7.90;1.00;;;;;;5032305;28;20318;-81
2021/12/01 15:02:41;;;;;;;3.05;1.50;;;7.90;1.00;;;;;;5036205;28;20236;-77
2021/12/01 15:05:12;;;;;;;2.15;1.58;;;7.90;1.00;;;;;;5037163;28;20237;-79
2021/12/01 15:08:04;;;;;;;3.10;1.67;;;8.00;1.00;;;;;;5056129;28;20231;-78
2021/12/01 15:10:34;;;;;;;1.73;1.10;;;8.00;1.00;;;;;;5060316;28;20232;-79
2021/12/01 15:13:05;;;;;;;2.80;1.50;;;8.00;1.00;;;;;;5043045;28;20218;-76
2021/12/01 15:15:35;;;;;;;2.60;1.75;;;8.10;1.00;;;;;;5040482;28;20352;-77
2021/12/01 15:18:03;;;;;;;1.52;0.90;;;8.10;1.00;;;;;;5037383;28;20235;-78
2021/12/01 15:20:31;;;;;;;1.80;1.17;;;8.10;1.00;;;;;;5056058;28;21533;-78
2021/12/01 15:23:05;;;;;;;1.75;1.20;;;8.20;1.00;;;;;;5056981;28;20251;-78
2021/12/01 15:25:35;;;;;;;1.90;1.10;;;8.20;1.00;;;;;;5041768;28;20231;-77
2021/12/01 15:28:03;;;;;;;2.10;1.35;;;8.20;1.00;;;;;;5056446;28;20542;-76
2021/12/01 15:30:31;;;;;;;2.13;1.15;;;8.20;1.00;;;;;;5065503;28;20232;-79
2021/12/01 15:33:02;;;;;;;1.60;1.00;;;8.20;1.00;;;;;;5057019;28;20242;-79
2021/12/01 15:35:29;;;;;;;1.50;1.00;;;8.30;1.00;;;;;;5057328;28;20233;-79
2021/12/01 15:37:56;;;;;;;1.70;0.90;;;8.30;1.00;;;;;;5055690;28;20224;-80
2021/12/01 15:40:23;;;;;;;1.70;1.02;;;8.30;1.00;;;;;;5056147;28;20708;-77
2021/12/01 15:42:52;;;;;;;2.08;1.13;;;8.30;1.00;;;;;;5056006;28;20301;-78
2021/12/01 15:45:18;;;;;;;2.65;1.40;;;8.30;1.00;;;;;;5038116;28;20242;-78
2021/12/01 15:47:46;;;;;;;1.70;1.10;;;8.30;1.00;;;;;;5042409;28;20225;-79
2021/12/01 15:50:17;;;;;;;3.20;1.50;;;8.40;1.00;;;;;;5056665;28;20308;-76
2021/12/01 15:52:44;;;;;;;2.08;1.38;;;8.40;1.00;;;;;;5036108;28;20276;-79
2021/12/01 15:55:11;;;;;;;2.60;1.60;;;8.40;1.00;;;;;;5041713;28;21096;-77
2021/12/01 15:57:38;;;;;;;2.83;2.42;;;8.40;1.00;;;;;;5055915;28;20275;-78
2021/12/01 16:00:07;;;;;;;1.95;0.95;;;8.50;1.00;;;;;;5069592;28;20233;-77
2021/12/01 16:02:34;;;;;;;2.25;1.10;;;8.50;1.00;;;;;;5060343;28;20252;-76
2021/12/01 16:05:02;;;;;;;2.47;1.00;;;8.50;1.00;;;;;;5061358;28;20233;-76